Three Rivers, TX (78071)

6:55 PM CDT on July 27, 2016 (GMT -0500)
RAWS | | Change Station

Elev 214 ft 28.37 °N, 98.12 °W | Updated 49 minutes ago

Clear
Clear
94 °F
Feels Like 102 °F
N
8
Wind Variable Wind from SE
Gusts 0.0 mph

Today
High -- | Low -- °F
--% Chance of Precip.
Yesterday
High -- | Low -- °F
Precip. -- in
Pressure 29.89 in
Visibility 10.0 miles
Clouds Clear
Heat Index 102 °F
Dew Point 72 °F
Humidity 49%
Rainfall in
Snow Depth Not available.
6:52 AM 8:25 PM
Last Quarter, 38% visible
METAR KBEA 272335Z AUTO 14013KT 10SM CLR 34/22 A2989 RMK AO2 T03370221
Pressure 29.89 in
Visibility 10.0 miles
Clouds Clear
Heat Index 102 °F
Dew Point 72 °F
Humidity 49%
Rainfall in
Snow Depth Not available.
6:52 AM 8:25 PM
Last Quarter, 38% visible
METAR KBEA 272335Z AUTO 14013KT 10SM CLR 34/22 A2989 RMK AO2 T03370221

10-Day Weather Forecast

Almanac

Astronomy

Jul. 27, 2016 Rise Set
Actual Time
Civil Twilight
Nautical Twilight
Astronomical Twilight
Moon
Length of Visible Light
Length of Day
Tomorrow will be .
, % of the Moon is Illuminated

Today's Extremes

State Highs State Lows

Community

WunderPhotos

Upload Photos

1,927,958 photos uploaded!

WunderBlog® & News

Nearby

Air Quality

  Air Quality AQ Index Pollutant
Not available.

Snow Depth

Station Depth Elevation

Earthquake Activity

City Distance Mag. Time & Date
Minimum magnitude displayed is 2.5.

Coastal Water Temperatures

Place Temperature

Stations

Nearby Weather Stations

Station Location Temp. Windchill Dew Point Humidity Wind Precip. Elev Updated Type
                   

Watches & Warnings

There are currently no watches in effect.